sensor_id;sensor_type;location;lat;lon;timestamp;P1;durP1;ratioP1;P2;durP2;ratioP2
3779;SDS011;1905;52.482;9.802;2024-01-15T00:01:40;16.17;;;7.27;;
3779;SDS011;1905;52.482;9.802;2024-01-15T00:04:27;15.43;;;6.90;;
3779;SDS011;1905;52.482;9.802;2024-01-15T00:07:22;13.47;;;6.50;;
3779;SDS011;1905;52.482;9.802;2024-01-15T00:10:14;16.77;;;6.57;;
3779;SDS011;1905;52.482;9.802;2024-01-15T00:13:01;15.10;;;5.97;;
3779;SDS011;1905;52.482;9.802;2024-01-15T00:16:39;14.50;;;6.57;;
3779;SDS011;1905;52.482;9.802;2024-01-15T00:19:20;15.80;;;7.27;;
3779;SDS011;1905;52.482;9.802;2024-01-15T00:22:03;14.53;;;5.50;;
3779;SDS011;1905;52.482;9.802;2024-01-15T00:25:34;16.53;;;6.50;;
3779;SDS011;1905;52.482;9.802;2024-01-15T00:28:50;14.60;;;6.57;;
3779;SDS011;1905;52.482;9.802;2024-01-15T00:31:40;11.13;;;5.03;;
3779;SDS011;1905;52.482;9.802;2024-01-15T00:34:08;11.77;;;4.60;;
3779;SDS011;1905;52.482;9.802;2024-01-15T00:36:35;15.27;;;6.43;;
3779;SDS011;1905;52.482;9.802;2024-01-15T00:39:03;12.07;;;4.83;;
3779;SDS011;1905;52.482;9.802;2024-01-15T00:41:31;13.03;;;5.23;;
3779;SDS011;1905;52.482;9.802;2024-01-15T00:43:59;11.97;;;3.97;;
3779;SDS011;1905;52.482;9.802;2024-01-15T00:46:27;12.40;;;4.50;;
3779;SDS011;1905;52.482;9.802;2024-01-15T00:48:56;12.17;;;4.77;;
3779;SDS011;1905;52.482;9.802;2024-01-15T00:51:23;11.13;;;4.00;;
3779;SDS011;1905;52.482;9.802;2024-01-15T00:53:51;14.33;;;5.37;;
3779;SDS011;1905;52.482;9.802;2024-01-15T00:56:19;11.47;;;4.43;;
3779;SDS011;1905;52.482;9.802;2024-01-15T00:58:46;11.50;;;4.70;;
3779;SDS011;1905;52.482;9.802;2024-01-15T01:01:14;10.67;;;4.70;;
3779;SDS011;1905;52.482;9.802;2024-01-15T01:03:42;11.50;;;4.50;;
3779;SDS011;1905;52.482;9.802;2024-01-15T01:06:11;10.20;;;4.33;;
3779;SDS011;1905;52.482;9.802;2024-01-15T01:08:38;10.27;;;3.80;;
3779;SDS011;1905;52.482;9.802;2024-01-15T01:11:06;10.10;;;3.80;;
3779;SDS011;1905;52.482;9.802;2024-01-15T01:13:34;9.10;;;3.90;;
3779;SDS011;1905;52.482;9.802;2024-01-15T01:16:02;9.80;;;3.73;;
3779;SDS011;1905;52.482;9.802;2024-01-15T01:18:29;9.73;;;3.73;;
3779;SDS011;1905;52.482;9.802;2024-01-15T01:20:57;17.03;;;4.27;;
3779;SDS011;1905;52.482;9.802;2024-01-15T01:23:26;11.47;;;3.33;;
3779;SDS011;1905;52.482;9.802;2024-01-15T01:25:54;11.77;;;3.93;;
3779;SDS011;1905;52.482;9.802;2024-01-15T01:28:22;8.57;;;3.00;;
3779;SDS011;1905;52.482;9.802;2024-01-15T01:30:49;7.00;;;2.77;;
3779;SDS011;1905;52.482;9.802;2024-01-15T01:33:17;8.70;;;3.50;;
3779;SDS011;1905;52.482;9.802;2024-01-15T01:35:45;8.13;;;2.77;;
3779;SDS011;1905;52.482;9.802;2024-01-15T01:38:13;8.53;;;3.40;;
3779;SDS011;1905;52.482;9.802;2024-01-15T01:40:42;9.00;;;2.80;;
3779;SDS011;1905;52.482;9.802;2024-01-15T01:43:09;9.00;;;2.70;;
3779;SDS011;1905;52.482;9.802;2024-01-15T01:45:37;10.43;;;2.77;;
3779;SDS011;1905;52.482;9.802;2024-01-15T01:48:05;8.57;;;3.13;;
3779;SDS011;1905;52.482;9.802;2024-01-15T01:50:34;8.80;;;3.03;;
3779;SDS011;1905;52.482;9.802;2024-01-15T01:53:01;9.90;;;2.40;;
3779;SDS011;1905;52.482;9.802;2024-01-15T01:55:31;11.27;;;3.63;;
3779;SDS011;1905;52.482;9.802;2024-01-15T01:58:02;7.23;;;2.10;;
3779;SDS011;1905;52.482;9.802;2024-01-15T02:00:31;8.90;;;3.47;;
3779;SDS011;1905;52.482;9.802;2024-01-15T02:03:01;7.03;;;2.30;;
3779;SDS011;1905;52.482;9.802;2024-01-15T02:05:29;10.20;;;2.23;;
3779;SDS011;1905;52.482;9.802;2024-01-15T02:07:58;11.20;;;4.03;;
3779;SDS011;1905;52.482;9.802;2024-01-15T02:10:26;8.03;;;2.23;;
3779;SDS011;1905;52.482;9.802;2024-01-15T02:12:53;9.97;;;2.67;;
3779;SDS011;1905;52.482;9.802;2024-01-15T02:15:22;15.67;;;3.53;;
3779;SDS011;1905;52.482;9.802;2024-01-15T02:17:56;11.60;;;2.23;;
3779;SDS011;1905;52.482;9.802;2024-01-15T02:20:25;6.57;;;2.43;;
3779;SDS011;1905;52.482;9.802;2024-01-15T02:22:53;10.30;;;3.30;;
3779;SDS011;1905;52.482;9.802;2024-01-15T02:25:22;9.30;;;1.87;;
3779;SDS011;1905;52.482;9.802;2024-01-15T02:27:50;9.57;;;3.07;;
3779;SDS011;1905;52.482;9.802;2024-01-15T02:30:18;9.10;;;2.30;;
3779;SDS011;1905;52.482;9.802;2024-01-15T02:32:46;5.93;;;2.83;;
3779;SDS011;1905;52.482;9.802;2024-01-15T02:35:14;10.30;;;2.23;;
3779;SDS011;1905;52.482;9.802;2024-01-15T02:37:42;11.70;;;2.17;;
3779;SDS011;1905;52.482;9.802;2024-01-15T02:40:10;7.20;;;2.17;;
3779;SDS011;1905;52.482;9.802;2024-01-15T02:42:39;15.40;;;4.13;;
3779;SDS011;1905;52.482;9.802;2024-01-15T02:45:07;12.63;;;3.00;;
3779;SDS011;1905;52.482;9.802;2024-01-15T02:47:35;9.67;;;2.20;;
3779;SDS011;1905;52.482;9.802;2024-01-15T02:50:03;9.70;;;1.80;;
3779;SDS011;1905;52.482;9.802;2024-01-15T02:52:32;10.60;;;2.50;;
3779;SDS011;1905;52.482;9.802;2024-01-15T02:55:00;7.27;;;1.67;;
3779;SDS011;1905;52.482;9.802;2024-01-15T02:57:27;8.70;;;1.80;;
3779;SDS011;1905;52.482;9.802;2024-01-15T02:59:56;13.13;;;2.00;;
3779;SDS011;1905;52.482;9.802;2024-01-15T03:02:24;7.77;;;2.00;;
3779;SDS011;1905;52.482;9.802;2024-01-15T03:04:52;11.27;;;1.60;;
3779;SDS011;1905;52.482;9.802;2024-01-15T03:07:19;13.33;;;2.20;;
3779;SDS011;1905;52.482;9.802;2024-01-15T03:09:47;8.90;;;1.50;;
3779;SDS011;1905;52.482;9.802;2024-01-15T03:12:15;8.93;;;1.90;;
3779;SDS011;1905;52.482;9.802;2024-01-15T03:14:42;5.90;;;2.10;;
3779;SDS011;1905;52.482;9.802;2024-01-15T03:17:11;7.00;;;1.57;;
3779;SDS011;1905;52.482;9.802;2024-01-15T03:19:39;5.93;;;1.50;;
3779;SDS011;1905;52.482;9.802;2024-01-15T03:22:07;7.90;;;1.90;;
3779;SDS011;1905;52.482;9.802;2024-01-15T03:24:35;7.33;;;1.53;;
3779;SDS011;1905;52.482;9.802;2024-01-15T03:27:03;10.27;;;2.20;;
3779;SDS011;1905;52.482;9.802;2024-01-15T03:29:31;7.30;;;2.00;;
3779;SDS011;1905;52.482;9.802;2024-01-15T03:31:59;6.20;;;1.70;;
3779;SDS011;1905;52.482;9.802;2024-01-15T03:34:28;11.63;;;1.93;;
3779;SDS011;1905;52.482;9.802;2024-01-15T03:36:56;7.70;;;1.60;;
3779;SDS011;1905;52.482;9.802;2024-01-15T03:39:23;7.20;;;1.60;;
3779;SDS011;1905;52.482;9.802;2024-01-15T03:41:51;6.13;;;1.33;;
3779;SDS011;1905;52.482;9.802;2024-01-15T03:44:19;7.13;;;1.50;;
3779;SDS011;1905;52.482;9.802;2024-01-15T03:46:46;8.93;;;2.10;;
3779;SDS011;1905;52.482;9.802;2024-01-15T03:49:14;6.03;;;1.43;;
3779;SDS011;1905;52.482;9.802;2024-01-15T03:51:43;6.50;;;1.60;;
3779;SDS011;1905;52.482;9.802;2024-01-15T03:54:12;7.70;;;1.70;;
3779;SDS011;1905;52.482;9.802;2024-01-15T03:56:41;8.93;;;1.47;;
3779;SDS011;1905;52.482;9.802;2024-01-15T03:59:08;5.53;;;1.77;;
3779;SDS011;1905;52.482;9.802;2024-01-15T04:01:36;8.33;;;1.77;;
3779;SDS011;1905;52.482;9.802;2024-01-15T04:04:03;9.23;;;1.90;;
3779;SDS011;1905;52.482;9.802;2024-01-15T04:06:31;5.97;;;1.80;;
3779;SDS011;1905;52.482;9.802;2024-01-15T04:09:00;8.13;;;1.67;;
3779;SDS011;1905;52.482;9.802;2024-01-15T04:11:28;7.73;;;1.60;;
3779;SDS011;1905;52.482;9.802;2024-01-15T04:13:55;19.00;;;1.70;;
3779;SDS011;1905;52.482;9.802;2024-01-15T04:16:23;4.80;;;1.10;;
3779;SDS011;1905;52.482;9.802;2024-01-15T04:18:50;14.33;;;2.13;;
3779;SDS011;1905;52.482;9.802;2024-01-15T04:21:18;8.50;;;1.83;;
3779;SDS011;1905;52.482;9.802;2024-01-15T04:23:46;7.50;;;2.10;;
3779;SDS011;1905;52.482;9.802;2024-01-15T04:26:15;15.17;;;2.10;;
3779;SDS011;1905;52.482;9.802;2024-01-15T04:28:42;12.57;;;2.00;;
3779;SDS011;1905;52.482;9.802;2024-01-15T04:31:10;8.77;;;2.07;;
3779;SDS011;1905;52.482;9.802;2024-01-15T04:33:48;7.93;;;1.30;;
3779;SDS011;1905;52.482;9.802;2024-01-15T04:36:16;5.60;;;1.27;;
3779;SDS011;1905;52.482;9.802;2024-01-15T04:38:44;15.67;;;2.17;;
3779;SDS011;1905;52.482;9.802;2024-01-15T04:41:12;12.40;;;2.47;;
3779;SDS011;1905;52.482;9.802;2024-01-15T04:43:41;5.73;;;1.70;;
3779;SDS011;1905;52.482;9.802;2024-01-15T04:46:08;11.53;;;1.80;;
3779;SDS011;1905;52.482;9.802;2024-01-15T04:48:36;7.67;;;1.60;;
3779;SDS011;1905;52.482;9.802;2024-01-15T04:51:04;5.77;;;1.70;;
3779;SDS011;1905;52.482;9.802;2024-01-15T04:53:32;6.33;;;1.60;;
3779;SDS011;1905;52.482;9.802;2024-01-15T04:56:01;7.50;;;2.20;;
3779;SDS011;1905;52.482;9.802;2024-01-15T04:58:29;8.30;;;1.97;;
3779;SDS011;1905;52.482;9.802;2024-01-15T05:00:58;5.83;;;1.30;;
3779;SDS011;1905;52.482;9.802;2024-01-15T05:03:26;5.83;;;1.80;;
3779;SDS011;1905;52.482;9.802;2024-01-15T05:05:54;8.70;;;1.40;;
3779;SDS011;1905;52.482;9.802;2024-01-15T05:08:22;5.83;;;1.40;;
3779;SDS011;1905;52.482;9.802;2024-01-15T05:10:50;5.53;;;1.30;;
3779;SDS011;1905;52.482;9.802;2024-01-15T05:13:17;7.23;;;1.97;;
3779;SDS011;1905;52.482;9.802;2024-01-15T05:15:45;7.47;;;1.70;;
3779;SDS011;1905;52.482;9.802;2024-01-15T05:18:14;12.73;;;3.20;;
3779;SDS011;1905;52.482;9.802;2024-01-15T05:20:42;7.60;;;2.70;;
3779;SDS011;1905;52.482;9.802;2024-01-15T05:23:09;5.33;;;1.70;;
3779;SDS011;1905;52.482;9.802;2024-01-15T05:25:37;6.50;;;1.70;;
3779;SDS011;1905;52.482;9.802;2024-01-15T05:28:05;5.53;;;1.43;;
3779;SDS011;1905;52.482;9.802;2024-01-15T05:30:33;6.70;;;1.60;;
3779;SDS011;1905;52.482;9.802;2024-01-15T05:33:00;9.37;;;2.40;;
3779;SDS011;1905;52.482;9.802;2024-01-15T05:35:30;5.67;;;1.73;;
3779;SDS011;1905;52.482;9.802;2024-01-15T05:37:58;6.00;;;1.60;;
3779;SDS011;1905;52.482;9.802;2024-01-15T05:40:25;8.90;;;1.53;;
3779;SDS011;1905;52.482;9.802;2024-01-15T05:42:53;8.80;;;1.50;;
3779;SDS011;1905;52.482;9.802;2024-01-15T05:45:21;15.03;;;2.13;;
3779;SDS011;1905;52.482;9.802;2024-01-15T05:47:48;6.47;;;1.60;;
3779;SDS011;1905;52.482;9.802;2024-01-15T05:50:18;6.10;;;1.83;;
3779;SDS011;1905;52.482;9.802;2024-01-15T05:52:47;6.10;;;1.53;;
3779;SDS011;1905;52.482;9.802;2024-01-15T05:55:15;6.00;;;1.43;;
3779;SDS011;1905;52.482;9.802;2024-01-15T05:57:44;8.23;;;2.50;;
3779;SDS011;1905;52.482;9.802;2024-01-15T06:00:12;11.17;;;1.70;;
3779;SDS011;1905;52.482;9.802;2024-01-15T06:02:41;10.63;;;1.87;;
3779;SDS011;1905;52.482;9.802;2024-01-15T06:05:08;7.67;;;3.20;;
3779;SDS011;1905;52.482;9.802;2024-01-15T06:07:36;8.27;;;3.40;;
3779;SDS011;1905;52.482;9.802;2024-01-15T06:10:06;6.40;;;2.10;;
3779;SDS011;1905;52.482;9.802;2024-01-15T06:12:34;6.63;;;1.57;;
3779;SDS011;1905;52.482;9.802;2024-01-15T06:15:03;5.90;;;1.70;;
3779;SDS011;1905;52.482;9.802;2024-01-15T06:17:32;8.70;;;1.67;;
3779;SDS011;1905;52.482;9.802;2024-01-15T06:20:01;6.83;;;1.37;;
3779;SDS011;1905;52.482;9.802;2024-01-15T06:22:30;11.87;;;3.10;;
3779;SDS011;1905;52.482;9.802;2024-01-15T06:25:22;6.70;;;1.87;;
3779;SDS011;1905;52.482;9.802;2024-01-15T06:27:50;5.37;;;1.50;;
3779;SDS011;1905;52.482;9.802;2024-01-15T06:30:18;9.10;;;2.03;;
3779;SDS011;1905;52.482;9.802;2024-01-15T06:32:46;5.27;;;1.73;;
3779;SDS011;1905;52.482;9.802;2024-01-15T06:35:13;6.67;;;1.87;;
3779;SDS011;1905;52.482;9.802;2024-01-15T06:37:41;5.93;;;1.57;;
3779;SDS011;1905;52.482;9.802;2024-01-15T06:40:09;8.83;;;2.30;;
3779;SDS011;1905;52.482;9.802;2024-01-15T06:42:38;6.10;;;2.00;;
3779;SDS011;1905;52.482;9.802;2024-01-15T06:45:06;9.40;;;2.20;;
3779;SDS011;1905;52.482;9.802;2024-01-15T06:47:35;10.73;;;2.17;;
3779;SDS011;1905;52.482;9.802;2024-01-15T06:50:03;9.50;;;2.90;;
3779;SDS011;1905;52.482;9.802;2024-01-15T06:52:33;8.47;;;1.70;;
3779;SDS011;1905;52.482;9.802;2024-01-15T06:55:01;9.63;;;2.00;;
3779;SDS011;1905;52.482;9.802;2024-01-15T06:57:29;7.50;;;2.30;;
3779;SDS011;1905;52.482;9.802;2024-01-15T06:59:58;7.83;;;2.33;;
3779;SDS011;1905;52.482;9.802;2024-01-15T07:02:25;13.53;;;2.50;;
3779;SDS011;1905;52.482;9.802;2024-01-15T07:04:53;6.93;;;1.57;;
3779;SDS011;1905;52.482;9.802;2024-01-15T07:07:21;9.13;;;2.33;;
3779;SDS011;1905;52.482;9.802;2024-01-15T07:09:49;6.97;;;2.07;;
3779;SDS011;1905;52.482;9.802;2024-01-15T07:12:18;12.83;;;2.60;;
3779;SDS011;1905;52.482;9.802;2024-01-15T07:14:46;5.13;;;1.17;;
3779;SDS011;1905;52.482;9.802;2024-01-15T07:17:15;7.77;;;2.00;;
3779;SDS011;1905;52.482;9.802;2024-01-15T07:19:42;8.10;;;1.83;;
3779;SDS011;1905;52.482;9.802;2024-01-15T07:22:10;7.23;;;1.90;;
3779;SDS011;1905;52.482;9.802;2024-01-15T07:24:38;8.37;;;2.17;;
3779;SDS011;1905;52.482;9.802;2024-01-15T07:27:05;6.30;;;1.87;;
3779;SDS011;1905;52.482;9.802;2024-01-15T07:29:33;11.23;;;4.00;;
3779;SDS011;1905;52.482;9.802;2024-01-15T07:32:03;6.47;;;2.00;;
3779;SDS011;1905;52.482;9.802;2024-01-15T07:34:35;6.20;;;1.73;;
3779;SDS011;1905;52.482;9.802;2024-01-15T07:37:03;6.33;;;2.00;;
3779;SDS011;1905;52.482;9.802;2024-01-15T07:39:31;9.07;;;2.50;;
3779;SDS011;1905;52.482;9.802;2024-01-15T07:41:58;11.60;;;1.83;;
3779;SDS011;1905;52.482;9.802;2024-01-15T07:44:26;7.90;;;1.80;;
3779;SDS011;1905;52.482;9.802;2024-01-15T07:46:54;6.10;;;1.83;;
3779;SDS011;1905;52.482;9.802;2024-01-15T07:49:21;7.57;;;1.83;;
3779;SDS011;1905;52.482;9.802;2024-01-15T07:51:51;10.13;;;2.37;;
3779;SDS011;1905;52.482;9.802;2024-01-15T07:54:19;5.73;;;1.40;;
3779;SDS011;1905;52.482;9.802;2024-01-15T07:56:52;6.73;;;1.97;;
3779;SDS011;1905;52.482;9.802;2024-01-15T07:59:20;6.30;;;1.80;;
3779;SDS011;1905;52.482;9.802;2024-01-15T08:01:48;8.00;;;1.90;;
3779;SDS011;1905;52.482;9.802;2024-01-15T08:04:16;6.50;;;2.33;;
3779;SDS011;1905;52.482;9.802;2024-01-15T08:06:44;7.13;;;2.10;;
3779;SDS011;1905;52.482;9.802;2024-01-15T08:09:13;7.20;;;2.03;;
3779;SDS011;1905;52.482;9.802;2024-01-15T08:11:42;7.93;;;2.33;;
3779;SDS011;1905;52.482;9.802;2024-01-15T08:14:10;11.20;;;2.20;;
3779;SDS011;1905;52.482;9.802;2024-01-15T08:16:38;8.10;;;2.67;;
3779;SDS011;1905;52.482;9.802;2024-01-15T08:19:06;8.80;;;2.20;;
3779;SDS011;1905;52.482;9.802;2024-01-15T08:21:34;9.40;;;2.20;;
3779;SDS011;1905;52.482;9.802;2024-01-15T08:24:02;6.40;;;1.87;;
3779;SDS011;1905;52.482;9.802;2024-01-15T08:26:32;6.73;;;2.13;;
3779;SDS011;1905;52.482;9.802;2024-01-15T08:28:59;9.90;;;2.57;;
3779;SDS011;1905;52.482;9.802;2024-01-15T08:31:27;6.80;;;1.77;;
3779;SDS011;1905;52.482;9.802;2024-01-15T08:33:55;6.97;;;1.57;;
3779;SDS011;1905;52.482;9.802;2024-01-15T08:36:22;10.03;;;2.60;;
3779;SDS011;1905;52.482;9.802;2024-01-15T08:38:51;12.07;;;4.47;;
3779;SDS011;1905;52.482;9.802;2024-01-15T08:41:18;15.97;;;3.53;;
3779;SDS011;1905;52.482;9.802;2024-01-15T08:43:47;10.83;;;4.33;;
3779;SDS011;1905;52.482;9.802;2024-01-15T08:46:15;10.20;;;3.63;;
3779;SDS011;1905;52.482;9.802;2024-01-15T08:48:43;10.03;;;2.20;;
3779;SDS011;1905;52.482;9.802;2024-01-15T08:51:10;8.07;;;2.47;;
3779;SDS011;1905;52.482;9.802;2024-01-15T08:53:38;6.57;;;2.30;;
3779;SDS011;1905;52.482;9.802;2024-01-15T08:56:06;7.33;;;1.97;;
3779;SDS011;1905;52.482;9.802;2024-01-15T08:58:34;6.60;;;1.83;;
3779;SDS011;1905;52.482;9.802;2024-01-15T09:01:03;10.80;;;2.10;;
3779;SDS011;1905;52.482;9.802;2024-01-15T09:03:31;9.13;;;2.50;;
3779;SDS011;1905;52.482;9.802;2024-01-15T09:06:00;5.90;;;2.13;;
3779;SDS011;1905;52.482;9.802;2024-01-15T09:08:28;8.83;;;2.27;;
3779;SDS011;1905;52.482;9.802;2024-01-15T09:10:55;8.40;;;2.30;;
3779;SDS011;1905;52.482;9.802;2024-01-15T09:13:23;9.63;;;2.10;;
3779;SDS011;1905;52.482;9.802;2024-01-15T09:15:51;9.70;;;2.60;;
3779;SDS011;1905;52.482;9.802;2024-01-15T09:18:20;8.33;;;3.17;;
3779;SDS011;1905;52.482;9.802;2024-01-15T09:20:48;14.80;;;2.40;;
3779;SDS011;1905;52.482;9.802;2024-01-15T09:23:16;7.10;;;2.40;;
3779;SDS011;1905;52.482;9.802;2024-01-15T09:25:44;7.90;;;2.10;;
3779;SDS011;1905;52.482;9.802;2024-01-15T09:28:11;11.10;;;3.63;;
3779;SDS011;1905;52.482;9.802;2024-01-15T09:30:40;9.00;;;3.00;;
3779;SDS011;1905;52.482;9.802;2024-01-15T09:33:07;8.43;;;1.90;;
3779;SDS011;1905;52.482;9.802;2024-01-15T09:35:37;10.17;;;2.97;;
3779;SDS011;1905;52.482;9.802;2024-01-15T09:38:04;7.77;;;2.13;;
3779;SDS011;1905;52.482;9.802;2024-01-15T09:40:32;8.33;;;2.07;;
3779;SDS011;1905;52.482;9.802;2024-01-15T09:43:00;13.77;;;3.60;;
3779;SDS011;1905;52.482;9.802;2024-01-15T09:45:29;9.00;;;2.57;;
3779;SDS011;1905;52.482;9.802;2024-01-15T09:47:57;14.00;;;3.50;;
3779;SDS011;1905;52.482;9.802;2024-01-15T09:50:25;12.00;;;2.17;;
3779;SDS011;1905;52.482;9.802;2024-01-15T09:52:54;6.23;;;2.13;;
3779;SDS011;1905;52.482;9.802;2024-01-15T09:55:23;9.73;;;2.10;;
3779;SDS011;1905;52.482;9.802;2024-01-15T09:57:52;8.87;;;2.90;;
3779;SDS011;1905;52.482;9.802;2024-01-15T10:00:23;5.67;;;1.83;;
3779;SDS011;1905;52.482;9.802;2024-01-15T10:02:51;6.57;;;2.30;;
3779;SDS011;1905;52.482;9.802;2024-01-15T10:05:18;8.20;;;2.13;;
3779;SDS011;1905;52.482;9.802;2024-01-15T10:07:46;9.00;;;2.20;;
3779;SDS011;1905;52.482;9.802;2024-01-15T10:10:18;6.00;;;2.40;;
3779;SDS011;1905;52.482;9.802;2024-01-15T10:12:45;10.40;;;2.57;;
3779;SDS011;1905;52.482;9.802;2024-01-15T10:15:13;7.17;;;2.20;;
3779;SDS011;1905;52.482;9.802;2024-01-15T10:17:41;5.40;;;1.63;;
3779;SDS011;1905;52.482;9.802;2024-01-15T10:20:09;7.53;;;2.20;;
3779;SDS011;1905;52.482;9.802;2024-01-15T10:22:40;8.67;;;2.10;;
3779;SDS011;1905;52.482;9.802;2024-01-15T10:25:12;5.47;;;1.70;;
3779;SDS011;1905;52.482;9.802;2024-01-15T10:27:41;5.40;;;1.70;;
3779;SDS011;1905;52.482;9.802;2024-01-15T10:30:10;12.33;;;3.90;;
3779;SDS011;1905;52.482;9.802;2024-01-15T10:32:40;10.27;;;2.93;;
3779;SDS011;1905;52.482;9.802;2024-01-15T10:35:08;8.23;;;3.13;;
3779;SDS011;1905;52.482;9.802;2024-01-15T10:37:36;9.80;;;2.83;;
3779;SDS011;1905;52.482;9.802;2024-01-15T10:40:04;5.50;;;1.63;;
3779;SDS011;1905;52.482;9.802;2024-01-15T10:42:33;6.77;;;2.00;;
3779;SDS011;1905;52.482;9.802;2024-01-15T10:45:03;7.53;;;2.07;;
3779;SDS011;1905;52.482;9.802;2024-01-15T10:47:31;10.03;;;2.60;;
3779;SDS011;1905;52.482;9.802;2024-01-15T10:49:59;8.90;;;2.53;;
3779;SDS011;1905;52.482;9.802;2024-01-15T10:52:28;7.03;;;2.03;;
3779;SDS011;1905;52.482;9.802;2024-01-15T10:54:57;6.93;;;2.20;;
3779;SDS011;1905;52.482;9.802;2024-01-15T10:57:33;7.33;;;3.03;;
3779;SDS011;1905;52.482;9.802;2024-01-15T11:00:03;9.87;;;2.37;;
3779;SDS011;1905;52.482;9.802;2024-01-15T11:02:32;6.97;;;2.40;;
3779;SDS011;1905;52.482;9.802;2024-01-15T11:05:01;8.10;;;2.30;;
3779;SDS011;1905;52.482;9.802;2024-01-15T11:07:30;8.07;;;2.40;;
3779;SDS011;1905;52.482;9.802;2024-01-15T11:09:58;6.70;;;1.73;;
3779;SDS011;1905;52.482;9.802;2024-01-15T11:12:26;10.10;;;2.10;;
3779;SDS011;1905;52.482;9.802;2024-01-15T11:15:00;7.83;;;1.90;;
3779;SDS011;1905;52.482;9.802;2024-01-15T11:20:26;7.03;;;2.20;;
3779;SDS011;1905;52.482;9.802;2024-01-15T11:22:54;8.33;;;2.47;;
3779;SDS011;1905;52.482;9.802;2024-01-15T11:25:24;9.03;;;2.23;;
3779;SDS011;1905;52.482;9.802;2024-01-15T11:28:00;7.20;;;2.30;;
3779;SDS011;1905;52.482;9.802;2024-01-15T11:30:29;6.60;;;2.07;;
3779;SDS011;1905;52.482;9.802;2024-01-15T11:32:57;6.43;;;2.10;;
3779;SDS011;1905;52.482;9.802;2024-01-15T11:35:25;6.50;;;1.60;;
3779;SDS011;1905;52.482;9.802;2024-01-15T11:38:28;6.30;;;2.03;;
3779;SDS011;1905;52.482;9.802;2024-01-15T11:40:56;7.20;;;2.20;;
3779;SDS011;1905;52.482;9.802;2024-01-15T11:43:26;9.07;;;2.30;;
3779;SDS011;1905;52.482;9.802;2024-01-15T11:45:53;9.77;;;1.70;;
3779;SDS011;1905;52.482;9.802;2024-01-15T11:48:22;6.07;;;1.80;;
3779;SDS011;1905;52.482;9.802;2024-01-15T11:50:54;14.13;;;2.00;;
3779;SDS011;1905;52.482;9.802;2024-01-15T11:53:27;11.37;;;2.03;;
3779;SDS011;1905;52.482;9.802;2024-01-15T11:56:02;10.50;;;2.37;;
3779;SDS011;1905;52.482;9.802;2024-01-15T11:58:30;7.13;;;1.77;;
3779;SDS011;1905;52.482;9.802;2024-01-15T12:00:58;6.20;;;1.50;;
3779;SDS011;1905;52.482;9.802;2024-01-15T12:03:26;7.13;;;1.83;;
3779;SDS011;1905;52.482;9.802;2024-01-15T12:05:55;7.53;;;1.87;;
3779;SDS011;1905;52.482;9.802;2024-01-15T12:08:24;5.83;;;1.37;;
3779;SDS011;1905;52.482;9.802;2024-01-15T12:10:53;6.03;;;1.67;;
3779;SDS011;1905;52.482;9.802;2024-01-15T12:13:21;6.63;;;1.73;;
3779;SDS011;1905;52.482;9.802;2024-01-15T12:15:48;8.53;;;2.23;;
3779;SDS011;1905;52.482;9.802;2024-01-15T12:18:17;6.23;;;2.00;;
3779;SDS011;1905;52.482;9.802;2024-01-15T12:20:46;12.70;;;2.80;;
3779;SDS011;1905;52.482;9.802;2024-01-15T12:23:16;6.63;;;2.07;;
3779;SDS011;1905;52.482;9.802;2024-01-15T12:25:44;15.93;;;1.90;;
3779;SDS011;1905;52.482;9.802;2024-01-15T12:28:13;6.03;;;1.90;;
3779;SDS011;1905;52.482;9.802;2024-01-15T12:30:42;7.83;;;2.10;;
3779;SDS011;1905;52.482;9.802;2024-01-15T12:33:11;7.53;;;1.80;;
3779;SDS011;1905;52.482;9.802;2024-01-15T12:35:38;10.93;;;1.80;;
3779;SDS011;1905;52.482;9.802;2024-01-15T12:38:06;6.30;;;2.03;;
3779;SDS011;1905;52.482;9.802;2024-01-15T12:40:35;8.00;;;2.83;;
3779;SDS011;1905;52.482;9.802;2024-01-15T12:43:03;5.87;;;1.80;;
3779;SDS011;1905;52.482;9.802;2024-01-15T12:45:33;14.47;;;2.40;;
3779;SDS011;1905;52.482;9.802;2024-01-15T12:48:01;6.93;;;2.23;;
3779;SDS011;1905;52.482;9.802;2024-01-15T12:50:30;7.33;;;1.70;;
3779;SDS011;1905;52.482;9.802;2024-01-15T12:52:58;8.90;;;2.43;;
3779;SDS011;1905;52.482;9.802;2024-01-15T12:55:26;11.10;;;2.80;;
3779;SDS011;1905;52.482;9.802;2024-01-15T12:57:55;10.57;;;2.47;;
3779;SDS011;1905;52.482;9.802;2024-01-15T13:00:22;8.20;;;1.60;;
3779;SDS011;1905;52.482;9.802;2024-01-15T13:02:52;5.63;;;1.60;;
3779;SDS011;1905;52.482;9.802;2024-01-15T13:05:21;8.93;;;2.00;;
3779;SDS011;1905;52.482;9.802;2024-01-15T13:07:50;7.40;;;1.93;;
3779;SDS011;1905;52.482;9.802;2024-01-15T13:10:18;12.93;;;1.67;;
3779;SDS011;1905;52.482;9.802;2024-01-15T13:12:47;7.20;;;1.97;;
3779;SDS011;1905;52.482;9.802;2024-01-15T13:15:16;9.77;;;2.10;;
3779;SDS011;1905;52.482;9.802;2024-01-15T13:17:44;7.33;;;1.60;;
3779;SDS011;1905;52.482;9.802;2024-01-15T13:20:12;10.50;;;1.70;;
3779;SDS011;1905;52.482;9.802;2024-01-15T13:22:40;7.57;;;1.40;;
3779;SDS011;1905;52.482;9.802;2024-01-15T13:25:11;8.80;;;2.20;;
3779;SDS011;1905;52.482;9.802;2024-01-15T13:27:39;11.43;;;4.03;;
3779;SDS011;1905;52.482;9.802;2024-01-15T13:30:08;10.60;;;1.60;;
3779;SDS011;1905;52.482;9.802;2024-01-15T13:32:40;7.43;;;2.37;;
3779;SDS011;1905;52.482;9.802;2024-01-15T13:35:09;5.37;;;1.80;;
3779;SDS011;1905;52.482;9.802;2024-01-15T13:37:40;10.00;;;2.10;;
3779;SDS011;1905;52.482;9.802;2024-01-15T13:40:08;8.67;;;2.10;;
3779;SDS011;1905;52.482;9.802;2024-01-15T13:42:43;7.77;;;2.33;;
3779;SDS011;1905;52.482;9.802;2024-01-15T13:45:12;7.67;;;1.83;;
3779;SDS011;1905;52.482;9.802;2024-01-15T13:47:42;8.30;;;2.10;;
3779;SDS011;1905;52.482;9.802;2024-01-15T13:50:10;7.27;;;1.83;;
3779;SDS011;1905;52.482;9.802;2024-01-15T13:52:38;8.00;;;2.23;;
3779;SDS011;1905;52.482;9.802;2024-01-15T13:55:06;7.23;;;1.77;;
3779;SDS011;1905;52.482;9.802;2024-01-15T13:57:35;6.70;;;1.93;;
3779;SDS011;1905;52.482;9.802;2024-01-15T14:00:03;6.77;;;2.80;;
3779;SDS011;1905;52.482;9.802;2024-01-15T14:02:36;5.30;;;1.43;;
3779;SDS011;1905;52.482;9.802;2024-01-15T14:05:05;5.23;;;1.40;;
3779;SDS011;1905;52.482;9.802;2024-01-15T14:07:34;8.33;;;1.67;;
3779;SDS011;1905;52.482;9.802;2024-01-15T14:10:01;5.60;;;1.90;;
3779;SDS011;1905;52.482;9.802;2024-01-15T14:12:30;10.70;;;2.63;;
3779;SDS011;1905;52.482;9.802;2024-01-15T14:14:57;9.37;;;1.87;;
3779;SDS011;1905;52.482;9.802;2024-01-15T14:17:25;7.37;;;1.80;;
3779;SDS011;1905;52.482;9.802;2024-01-15T14:19:53;6.90;;;2.17;;
3779;SDS011;1905;52.482;9.802;2024-01-15T14:22:24;6.77;;;2.17;;
3779;SDS011;1905;52.482;9.802;2024-01-15T14:24:51;7.77;;;2.00;;
3779;SDS011;1905;52.482;9.802;2024-01-15T14:27:20;7.50;;;1.67;;
3779;SDS011;1905;52.482;9.802;2024-01-15T14:29:48;15.87;;;5.40;;
3779;SDS011;1905;52.482;9.802;2024-01-15T14:32:16;7.33;;;2.00;;
3779;SDS011;1905;52.482;9.802;2024-01-15T14:34:43;7.63;;;2.30;;
3779;SDS011;1905;52.482;9.802;2024-01-15T14:37:11;10.10;;;3.03;;
3779;SDS011;1905;52.482;9.802;2024-01-15T14:39:40;8.23;;;2.40;;
3779;SDS011;1905;52.482;9.802;2024-01-15T14:42:09;9.33;;;1.80;;
3779;SDS011;1905;52.482;9.802;2024-01-15T14:44:37;10.07;;;3.13;;
3779;SDS011;1905;52.482;9.802;2024-01-15T14:47:07;7.40;;;1.80;;
3779;SDS011;1905;52.482;9.802;2024-01-15T14:49:35;7.93;;;2.50;;
3779;SDS011;1905;52.482;9.802;2024-01-15T14:52:03;6.17;;;2.03;;
3779;SDS011;1905;52.482;9.802;2024-01-15T14:54:31;6.67;;;2.83;;
3779;SDS011;1905;52.482;9.802;2024-01-15T14:57:00;9.60;;;2.20;;
3779;SDS011;1905;52.482;9.802;2024-01-15T14:59:27;8.57;;;1.87;;
3779;SDS011;1905;52.482;9.802;2024-01-15T15:01:56;7.53;;;3.17;;
3779;SDS011;1905;52.482;9.802;2024-01-15T15:04:23;6.20;;;1.80;;
3779;SDS011;1905;52.482;9.802;2024-01-15T15:06:51;7.93;;;1.80;;
3779;SDS011;1905;52.482;9.802;2024-01-15T15:09:19;7.83;;;1.83;;
3779;SDS011;1905;52.482;9.802;2024-01-15T15:11:47;6.20;;;2.37;;
3779;SDS011;1905;52.482;9.802;2024-01-15T15:14:16;13.17;;;3.73;;
3779;SDS011;1905;52.482;9.802;2024-01-15T15:16:44;6.03;;;2.00;;
3779;SDS011;1905;52.482;9.802;2024-01-15T15:19:12;6.30;;;1.80;;
3779;SDS011;1905;52.482;9.802;2024-01-15T15:21:40;7.77;;;2.00;;
3779;SDS011;1905;52.482;9.802;2024-01-15T15:24:08;7.50;;;2.33;;
3779;SDS011;1905;52.482;9.802;2024-01-15T15:26:36;7.10;;;2.70;;
3779;SDS011;1905;52.482;9.802;2024-01-15T15:29:03;5.93;;;2.17;;